createdAt,value
2019-03-19T00:01:32.668Z,65.82
2019-03-19T00:06:39.949Z,66.08
2019-03-19T00:11:46.877Z,65.97
2019-03-19T00:16:53.875Z,66.40
2019-03-19T00:22:00.802Z,67.32
2019-03-19T00:27:07.805Z,67.32
2019-03-19T00:32:14.741Z,66.95
2019-03-19T00:37:23.520Z,67.19
2019-03-19T00:42:30.459Z,67.19
2019-03-19T00:47:37.530Z,67.76
2019-03-19T00:52:44.467Z,67.56
2019-03-19T00:57:51.482Z,67.66
2019-03-19T01:02:58.705Z,67.66
2019-03-19T01:08:05.788Z,69.06
2019-03-19T01:13:12.871Z,69.84
2019-03-19T01:18:19.789Z,69.81
2019-03-19T01:23:26.907Z,70.01
2019-03-19T01:28:33.916Z,70.08
2019-03-19T01:33:40.833Z,70.62
2019-03-19T01:38:47.781Z,71.07
2019-03-19T01:43:55.041Z,71.71
2019-03-19T01:49:01.985Z,72.76
2019-03-19T01:54:08.901Z,73.23
2019-03-19T01:59:15.849Z,72.72
2019-03-19T02:04:22.751Z,73.47
2019-03-19T02:09:29.695Z,73.91
2019-03-19T02:14:36.695Z,73.74
2019-03-19T02:19:43.620Z,73.54
2019-03-19T02:24:50.806Z,73.48
2019-03-19T02:29:57.988Z,74.04
2019-03-19T02:35:05.796Z,74.58
2019-03-19T02:40:12.769Z,74.56
2019-03-19T02:45:19.752Z,74.89
2019-03-19T02:50:26.705Z,74.74
2019-03-19T02:55:33.618Z,74.91
2019-03-19T03:00:41.027Z,75.16
2019-03-19T03:05:47.952Z,75.64
2019-03-19T03:10:55.318Z,75.98
2019-03-19T03:16:02.445Z,75.69
2019-03-19T03:21:09.515Z,75.57
2019-03-19T03:26:16.460Z,75.95
2019-03-19T03:31:23.404Z,75.50
2019-03-19T03:36:30.599Z,75.66
2019-03-19T03:41:38.688Z,75.23
2019-03-19T03:46:45.623Z,74.97
2019-03-19T03:51:52.626Z,75.17
2019-03-19T03:57:02.454Z,75.66
2019-03-19T04:02:08.285Z,75.75
2019-03-19T04:07:15.297Z,75.40
2019-03-19T04:12:22.230Z,74.91
2019-03-19T04:17:29.176Z,74.92
2019-03-19T04:22:36.136Z,75.17
2019-03-19T04:27:43.134Z,75.99
2019-03-19T04:32:50.182Z,77.39
2019-03-19T04:37:57.160Z,77.46
2019-03-19T04:43:04.089Z,77.79
2019-03-19T04:53:32.856Z,77.63
2019-03-19T04:58:39.786Z,76.77
2019-03-19T05:03:46.790Z,76.36
2019-03-19T05:08:53.704Z,76.26
2019-03-19T05:14:00.652Z,76.49
2019-03-19T05:19:07.572Z,76.47
2019-03-19T05:24:14.683Z,76.38
2019-03-19T05:29:22.573Z,76.56
2019-03-19T05:34:29.557Z,76.88
2019-03-19T05:39:36.580Z,76.78
2019-03-19T05:44:43.497Z,76.66
2019-03-19T05:49:50.448Z,75.83
2019-03-19T05:54:57.421Z,75.57
2019-03-19T06:00:32.717Z,75.57
2019-03-19T06:05:39.647Z,75.20
2019-03-19T06:17:10.774Z,74.38
2019-03-19T06:22:17.715Z,74.48
2019-03-19T06:27:24.641Z,73.75
2019-03-19T06:32:31.582Z,73.27
2019-03-19T06:37:38.522Z,72.98
2019-03-19T06:42:45.471Z,72.85
2019-03-19T06:47:52.520Z,72.67
2019-03-19T06:52:59.475Z,72.38
2019-03-19T06:58:10.821Z,71.84
2019-03-19T07:03:15.034Z,71.43
2019-03-19T07:08:22.060Z,70.85
2019-03-19T07:13:29.015Z,71.52
2019-03-19T07:18:35.933Z,70.61
2019-03-19T07:23:42.942Z,70.26
2019-03-19T07:28:49.891Z,70.61
2019-03-19T07:33:56.952Z,70.52
2019-03-19T07:39:05.358Z,69.88
2019-03-19T07:44:12.299Z,68.61
2019-03-19T07:49:19.252Z,67.84
2019-03-19T07:54:26.198Z,64.74
2019-03-19T07:59:33.331Z,66.53
2019-03-19T08:04:40.323Z,65.45
2019-03-19T08:09:47.281Z,65.75
2019-03-19T08:14:54.237Z,65.41
2019-03-19T08:20:01.250Z,64.86
2019-03-19T08:25:08.966Z,65.23
2019-03-19T08:30:16.908Z,64.69
2019-03-19T08:35:23.822Z,66.27
2019-03-19T08:40:30.802Z,72.98
2019-03-19T08:45:37.775Z,76.60
2019-03-19T08:50:44.749Z,76.98
2019-03-19T08:55:52.757Z,77.74
2019-03-19T09:00:59.700Z,78.46
2019-03-19T09:06:07.702Z,79.88
2019-03-19T09:11:14.740Z,79.88
2019-03-19T09:16:21.817Z,80.97
2019-03-19T09:21:28.822Z,81.26
2019-03-19T09:26:35.781Z,78.14
2019-03-19T09:31:42.895Z,77.17
2019-03-19T09:36:57.283Z,76.10
2019-03-19T09:41:58.549Z,76.00
2019-03-19T09:47:05.568Z,72.26
2019-03-19T09:52:12.723Z,70.65
2019-03-19T09:57:19.814Z,67.54
2019-03-19T10:02:26.748Z,68.63
2019-03-19T10:07:33.675Z,68.63
2019-03-19T10:12:41.666Z,66.41
2019-03-19T10:17:48.593Z,65.08
2019-03-19T10:22:55.559Z,62.87
2019-03-19T10:28:02.550Z,63.48
2019-03-19T10:33:09.536Z,60.33
2019-03-19T10:38:16.561Z,60.28
2019-03-19T10:43:23.502Z,59.97
2019-03-19T10:48:30.523Z,59.04
2019-03-19T10:53:37.546Z,59.75
2019-03-19T10:58:44.504Z,61.24
2019-03-19T11:03:51.512Z,63.93
2019-03-19T11:08:59.730Z,66.25
2019-03-19T11:14:06.634Z,71.59
2019-03-19T11:19:14.539Z,72.56
2019-03-19T11:24:22.050Z,69.23
2019-03-19T11:29:28.974Z,72.23
2019-03-19T11:34:35.916Z,71.36
2019-03-19T11:39:43.027Z,69.55
2019-03-19T11:44:50.222Z,64.69
2019-03-19T11:49:57.270Z,64.07
2019-03-19T11:55:05.301Z,63.29
2019-03-19T12:00:19.531Z,69.48
2019-03-19T12:05:27.179Z,72.75
2019-03-19T12:10:34.140Z,73.47
2019-03-19T12:15:41.149Z,75.51
2019-03-19T12:20:48.066Z,75.88
2019-03-19T12:25:55.412Z,73.20
2019-03-19T12:31:02.345Z,72.14
2019-03-19T12:36:09.365Z,71.06
2019-03-19T12:41:16.318Z,67.72
2019-03-19T12:46:23.310Z,67.44
2019-03-19T12:51:30.312Z,65.26
2019-03-19T12:56:37.250Z,61.66
2019-03-19T13:01:44.698Z,59.77
2019-03-19T13:06:51.611Z,57.19
2019-03-19T13:11:58.538Z,56.95
2019-03-19T13:17:05.549Z,56.01
2019-03-19T13:22:12.665Z,56.17
2019-03-19T13:27:19.689Z,55.94
2019-03-19T13:32:28.304Z,58.43
2019-03-19T13:37:35.553Z,58.08
2019-03-19T13:42:42.708Z,57.94
2019-03-19T13:47:49.753Z,56.83
2019-03-19T13:52:56.812Z,56.69
2019-03-19T13:58:03.885Z,57.16
2019-03-19T14:03:10.813Z,52.91
2019-03-19T14:08:18.067Z,51.11
2019-03-19T14:13:25.154Z,50.89
2019-03-19T14:18:32.139Z,50.71
2019-03-19T14:23:39.062Z,57.21
2019-03-19T14:28:46.497Z,57.32
2019-03-19T14:33:53.413Z,58.73
2019-03-19T14:39:01.631Z,57.77
2019-03-19T14:44:10.144Z,58.47
2019-03-19T14:49:17.086Z,56.86
2019-03-19T14:54:24.188Z,56.74
2019-03-19T14:59:31.237Z,54.88
2019-03-19T15:04:38.174Z,53.98
2019-03-19T15:09:46.113Z,53.15
2019-03-19T15:14:53.221Z,50.46
2019-03-19T15:20:00.391Z,45.24
2019-03-19T15:25:07.973Z,49.18
2019-03-19T15:30:16.706Z,47.07
2019-03-19T15:35:23.697Z,43.90
2019-03-19T15:40:30.714Z,48.68
2019-03-19T15:45:37.855Z,51.21
2019-03-19T15:50:44.799Z,51.08
2019-03-19T15:55:51.746Z,54.75
2019-03-19T16:00:59.156Z,54.54
2019-03-19T16:06:06.175Z,53.98
2019-03-19T16:11:14.171Z,54.39
2019-03-19T16:16:21.103Z,51.12
2019-03-19T16:21:28.070Z,44.44
2019-03-19T16:26:35.091Z,44.16
2019-03-19T16:31:50.659Z,44.09
2019-03-19T16:36:50.707Z,48.40
2019-03-19T16:41:57.624Z,52.08
2019-03-19T16:47:04.676Z,54.56
2019-03-19T16:52:11.690Z,54.80
2019-03-19T16:57:19.581Z,54.05
2019-03-19T17:02:26.564Z,54.22
2019-03-19T17:07:33.508Z,52.52
2019-03-19T17:12:42.005Z,53.88
2019-03-19T17:17:49.154Z,54.04
2019-03-19T17:22:56.105Z,54.42
2019-03-19T17:28:03.033Z,54.67
2019-03-19T17:33:11.082Z,55.14
2019-03-19T17:38:18.006Z,55.15
2019-03-19T17:43:24.932Z,54.99
2019-03-19T17:48:31.967Z,55.07
2019-03-19T17:53:38.910Z,55.94
2019-03-19T17:58:45.859Z,55.90
2019-03-19T18:03:52.781Z,55.93
2019-03-19T18:08:59.730Z,56.68
2019-03-19T18:14:06.774Z,56.62
2019-03-19T18:19:13.718Z,57.03
2019-03-19T18:24:22.883Z,57.72
2019-03-19T18:29:29.316Z,58.37
2019-03-19T18:34:36.280Z,58.13
2019-03-19T18:39:44.271Z,58.45
2019-03-19T18:44:51.199Z,58.53
2019-03-19T18:49:58.197Z,58.33
2019-03-19T18:55:06.143Z,58.98
2019-03-19T19:00:14.870Z,58.93
2019-03-19T19:05:21.880Z,59.06
2019-03-19T19:10:28.903Z,58.79
2019-03-19T19:15:35.812Z,59.61
2019-03-19T19:20:42.831Z,60.43
2019-03-19T19:25:49.842Z,60.60
2019-03-19T19:30:56.740Z,60.12
2019-03-19T19:36:03.690Z,59.60
2019-03-19T19:41:10.618Z,59.20
2019-03-19T19:46:17.601Z,59.40
2019-03-19T19:51:25.595Z,59.69
2019-03-19T19:56:32.526Z,59.54
2019-03-19T20:01:39.465Z,59.48
2019-03-19T20:06:46.441Z,59.84
2019-03-19T20:11:53.753Z,60.67
2019-03-19T20:17:01.923Z,61.39
2019-03-19T20:22:08.939Z,60.41
2019-03-19T20:27:15.964Z,60.67
2019-03-19T20:32:23.169Z,61.30
2019-03-19T20:37:30.095Z,62.35
2019-03-19T20:42:37.910Z,62.59
2019-03-19T20:47:45.067Z,63.38
2019-03-19T20:52:52.094Z,63.87
2019-03-19T20:57:59.121Z,64.02
2019-03-19T21:03:06.148Z,63.84
2019-03-19T21:08:13.081Z,63.93
2019-03-19T21:13:20.295Z,64.17
2019-03-19T21:18:27.289Z,64.22
2019-03-19T21:23:34.209Z,64.38
2019-03-19T21:28:41.302Z,63.72
2019-03-19T21:33:51.337Z,64.17
2019-03-19T21:38:57.416Z,65.74
2019-03-19T21:44:04.512Z,65.96
2019-03-19T21:49:11.513Z,65.93
2019-03-19T21:54:18.440Z,66.25
2019-03-19T21:59:30.830Z,66.48
2019-03-19T22:04:38.707Z,66.27
2019-03-19T22:09:45.636Z,66.62
2019-03-19T22:14:53.718Z,66.99
2019-03-19T22:20:13.167Z,67.61
2019-03-19T22:25:20.173Z,67.39
2019-03-19T22:30:27.097Z,67.23
2019-03-19T22:35:34.230Z,67.15
2019-03-19T22:40:41.226Z,66.48
2019-03-19T22:45:49.201Z,66.75
2019-03-19T22:50:56.169Z,66.75
2019-03-19T22:56:03.198Z,66.70
2019-03-19T23:01:10.774Z,66.86
2019-03-19T23:06:18.778Z,66.71
2019-03-19T23:11:25.815Z,65.85
2019-03-19T23:16:34.026Z,65.37
2019-03-19T23:21:40.964Z,65.54
2019-03-19T23:27:06.203Z,65.55
2019-03-19T23:32:13.149Z,66.39
2019-03-19T23:43:13.878Z,67.44
2019-03-19T23:53:42.862Z,66.98
2019-03-19T23:58:49.896Z,67.87
